Time;durP1;ratioP1;P1;durP2;ratioP2;P2;SDS_P1;SDS_P2;PMS_P1;PMS_P2;Temp;Humidity;BMP_temperature;BMP_pressure;BME280_temperature;BME280_humidity;BME280_pressure;Samples;Min_cycle;Max_cycle;Signal;HPM_P1;HPM_P2
2022/03/26 00:00:49;;;;;;;41.30;21.27;;;6.50;99.90;;;;;;5073089;28;20666;-83
2022/03/26 00:03:17;;;;;;;46.17;21.27;;;6.40;99.90;;;;;;5072948;28;20565;-83
2022/03/26 00:05:44;;;;;;;44.63;22.20;;;6.40;99.90;;;;;;5073267;28;20200;-83
2022/03/26 00:08:12;;;;;;;44.83;22.10;;;6.40;99.90;;;;;;5072647;28;20534;-83
2022/03/26 00:10:41;;;;;;;43.93;21.40;;;6.40;99.90;;;;;;5073306;28;20327;-83
2022/03/26 00:13:09;;;;;;;44.43;21.13;;;6.40;99.90;;;;;;5073110;28;20194;-83
2022/03/26 00:15:36;;;;;;;43.77;21.50;;;6.30;99.90;;;;;;5072735;28;20201;-84
2022/03/26 00:18:03;;;;;;;43.50;20.33;;;6.30;99.90;;;;;;5072355;28;20211;-84
2022/03/26 00:20:30;;;;;;;42.23;19.63;;;6.30;99.90;;;;;;5073272;28;20265;-84
2022/03/26 00:22:57;;;;;;;40.40;21.73;;;6.20;99.90;;;;;;5073106;28;20196;-83
2022/03/26 00:25:25;;;;;;;38.97;21.60;;;6.20;99.90;;;;;;5073161;28;20253;-83
2022/03/26 00:27:53;;;;;;;43.40;21.10;;;6.20;99.90;;;;;;5072244;28;20188;-84
2022/03/26 00:30:21;;;;;;;48.90;22.00;;;6.30;99.90;;;;;;5072849;28;20207;-83
2022/03/26 00:32:48;;;;;;;47.17;21.50;;;6.30;99.90;;;;;;5072810;28;20199;-84
2022/03/26 00:35:16;;;;;;;41.67;20.90;;;6.40;99.90;;;;;;5072431;28;20557;-83
2022/03/26 00:37:43;;;;;;;42.87;21.67;;;6.50;1.00;;;;;;5072432;28;20188;-83
2022/03/26 00:40:11;;;;;;;47.27;21.37;;;6.50;99.90;;;;;;5072477;28;20192;-83
2022/03/26 00:42:38;;;;;;;46.70;22.07;;;6.60;1.00;;;;;;5072624;28;20223;-83
2022/03/26 00:45:08;;;;;;;45.20;21.30;;;6.70;1.00;;;;;;5072575;28;20192;-83
2022/03/26 00:47:35;;;;;;;43.23;21.37;;;6.80;1.00;;;;;;5072628;28;20188;-84
2022/03/26 00:50:03;;;;;;;47.87;22.57;;;6.80;99.90;;;;;;5072112;28;20649;-83
2022/03/26 00:52:30;;;;;;;45.93;22.87;;;6.90;99.90;;;;;;5072535;28;20196;-83
2022/03/26 00:54:57;;;;;;;47.87;22.67;;;6.90;99.90;;;;;;5072343;28;20196;-83
2022/03/26 00:57:24;;;;;;;43.33;20.50;;;7.00;99.90;;;;;;5072515;28;20193;-83
2022/03/26 00:59:51;;;;;;;43.60;21.00;;;7.00;99.90;;;;;;5072008;28;20748;-83
2022/03/26 01:02:19;;;;;;;45.10;22.87;;;7.00;99.90;;;;;;5072531;28;20196;-83
2022/03/26 01:04:47;;;;;;;45.60;22.23;;;7.10;99.90;;;;;;5071849;28;20192;-83
2022/03/26 01:07:14;;;;;;;45.77;21.53;;;7.10;99.90;;;;;;5071283;28;20531;-83
2022/03/26 01:09:41;;;;;;;45.03;21.67;;;7.10;99.90;;;;;;5072389;28;20336;-84
2022/03/26 01:12:10;;;;;;;44.73;21.23;;;7.10;99.90;;;;;;5072342;28;20282;-84
2022/03/26 01:14:37;;;;;;;46.57;21.63;;;7.10;99.90;;;;;;5071902;28;20200;-84
2022/03/26 01:17:04;;;;;;;42.23;21.80;;;7.20;99.90;;;;;;5071962;28;20203;-84
2022/03/26 01:19:33;;;;;;;46.27;22.07;;;7.10;99.90;;;;;;5072093;28;20219;-84
2022/03/26 01:22:00;;;;;;;47.13;22.40;;;7.10;99.90;;;;;;5072121;28;20196;-84
2022/03/26 01:24:27;;;;;;;47.73;22.90;;;7.10;99.90;;;;;;5072771;28;20193;-84
2022/03/26 01:26:54;;;;;;;44.93;22.73;;;7.10;99.90;;;;;;5071921;28;20553;-84
2022/03/26 01:29:21;;;;;;;43.37;21.63;;;7.10;99.90;;;;;;5072214;28;20261;-84
2022/03/26 01:31:48;;;;;;;47.43;22.90;;;7.00;99.90;;;;;;5072160;28;20203;-83
2022/03/26 01:34:15;;;;;;;47.53;22.73;;;7.10;99.90;;;;;;5071580;28;20188;-84
2022/03/26 01:36:44;;;;;;;47.33;22.07;;;7.00;99.90;;;;;;5072252;28;20290;-83
2022/03/26 01:39:11;;;;;;;46.70;22.90;;;7.00;99.90;;;;;;5072049;28;20212;-83
2022/03/26 01:41:39;;;;;;;46.30;22.93;;;7.00;99.90;;;;;;5071856;28;20542;-84
2022/03/26 01:44:06;;;;;;;47.33;22.33;;;6.90;99.90;;;;;;5071816;28;20196;-84
2022/03/26 01:46:46;;;;;;;44.73;23.00;;;6.80;99.90;;;;;;5072030;28;20230;-84
2022/03/26 01:49:13;;;;;;;49.40;22.10;;;6.70;99.90;;;;;;5072006;28;20185;-83
2022/03/26 01:51:40;;;;;;;49.83;23.37;;;6.60;99.90;;;;;;5071699;28;20707;-84
2022/03/26 01:54:10;;;;;;;43.73;22.73;;;6.50;99.90;;;;;;5071582;28;20223;-84
2022/03/26 01:56:38;;;;;;;48.57;23.57;;;6.40;99.90;;;;;;5071734;28;20183;-84
2022/03/26 01:59:06;;;;;;;49.17;22.67;;;6.30;99.90;;;;;;5071819;28;20549;-83
2022/03/26 02:01:34;;;;;;;49.37;23.83;;;6.30;99.90;;;;;;5071849;28;20652;-84
2022/03/26 02:04:01;;;;;;;52.73;23.40;;;6.20;99.90;;;;;;5071547;28;20192;-84
2022/03/26 02:06:32;;;;;;;50.80;24.77;;;6.20;99.90;;;;;;5071731;28;20248;-84
2022/03/26 02:09:01;;;;;;;56.77;24.03;;;6.10;99.90;;;;;;5072043;28;20318;-83
2022/03/26 02:11:32;;;;;;;53.17;23.33;;;6.10;99.90;;;;;;5071736;28;20294;-84
2022/03/26 02:14:00;;;;;;;44.53;22.73;;;6.00;99.90;;;;;;5071283;28;20238;-84
2022/03/26 02:16:27;;;;;;;48.23;23.60;;;6.00;99.90;;;;;;5071794;28;20192;-84
2022/03/26 02:18:55;;;;;;;51.90;24.03;;;5.90;99.90;;;;;;5072777;28;20270;-84
2022/03/26 02:21:24;;;;;;;50.87;24.13;;;5.80;99.90;;;;;;5075158;28;20203;-83
2022/03/26 02:23:52;;;;;;;55.93;24.10;;;5.80;1.00;;;;;;5074929;28;20252;-83
2022/03/26 02:26:21;;;;;;;46.57;22.90;;;5.80;1.00;;;;;;5074830;28;20648;-83
2022/03/26 02:28:49;;;;;;;51.07;23.87;;;5.70;1.00;;;;;;5075077;28;20196;-84
2022/03/26 02:31:17;;;;;;;48.03;23.67;;;5.70;1.00;;;;;;5074749;28;20278;-83
2022/03/26 02:33:44;;;;;;;56.90;23.57;;;5.70;1.00;;;;;;5074497;28;20191;-84
2022/03/26 02:36:12;;;;;;;50.30;24.90;;;5.60;1.00;;;;;;5074643;28;20248;-83
2022/03/26 02:38:40;;;;;;;52.03;23.90;;;5.60;1.00;;;;;;5074624;28;20265;-83
2022/03/26 02:41:08;;;;;;;49.90;23.83;;;5.60;1.00;;;;;;5074604;28;20602;-83
2022/03/26 02:43:35;;;;;;;56.63;24.27;;;5.50;1.00;;;;;;5075082;28;20192;-82
2022/03/26 02:46:03;;;;;;;51.07;24.70;;;5.50;1.00;;;;;;5074745;28;20202;-83
2022/03/26 02:48:31;;;;;;;59.37;26.73;;;5.50;1.00;;;;;;5075217;28;20199;-83
2022/03/26 02:50:58;;;;;;;56.07;25.87;;;5.50;1.00;;;;;;5074487;28;20197;-83
2022/03/26 02:53:25;;;;;;;55.00;24.53;;;5.50;1.00;;;;;;5074469;28;20704;-83
2022/03/26 02:55:53;;;;;;;54.90;25.17;;;5.50;1.00;;;;;;5074669;28;20194;-83
2022/03/26 02:58:21;;;;;;;48.83;24.50;;;5.50;1.00;;;;;;5074250;28;20195;-83
2022/03/26 03:00:48;;;;;;;48.30;24.60;;;5.40;1.00;;;;;;5074309;28;20231;-84
2022/03/26 03:03:16;;;;;;;50.90;23.93;;;5.40;1.00;;;;;;5074546;28;20195;-83
2022/03/26 03:05:46;;;;;;;53.10;25.73;;;5.40;1.00;;;;;;5074200;28;20201;-84
2022/03/26 03:08:13;;;;;;;53.43;25.53;;;5.40;1.00;;;;;;5074474;28;20196;-84
2022/03/26 03:10:41;;;;;;;52.37;22.67;;;5.40;1.00;;;;;;5074564;28;20617;-84
2022/03/26 03:13:09;;;;;;;57.23;24.33;;;5.40;1.00;;;;;;5074440;28;20206;-84
2022/03/26 03:15:37;;;;;;;52.57;24.23;;;5.40;1.00;;;;;;5074177;28;20208;-84
2022/03/26 03:18:04;;;;;;;49.37;23.63;;;5.40;1.00;;;;;;5074384;28;20202;-84
2022/03/26 03:20:31;;;;;;;54.47;24.43;;;5.40;1.00;;;;;;5074187;28;20219;-84
2022/03/26 03:22:59;;;;;;;47.17;24.37;;;5.40;1.00;;;;;;5074160;28;20221;-84
2022/03/26 03:25:29;;;;;;;51.57;24.30;;;5.40;1.00;;;;;;5073826;28;20660;-84
2022/03/26 03:27:57;;;;;;;46.83;23.43;;;5.40;1.00;;;;;;5074391;28;20194;-84
2022/03/26 03:30:26;;;;;;;50.10;24.53;;;5.40;1.00;;;;;;5072712;28;20250;-84
2022/03/26 03:32:53;;;;;;;53.87;24.00;;;5.40;1.00;;;;;;5073982;28;20195;-84
2022/03/26 03:35:21;;;;;;;51.77;22.87;;;5.40;1.00;;;;;;5073565;28;20678;-84
2022/03/26 03:37:48;;;;;;;48.93;22.13;;;5.40;1.00;;;;;;5073924;28;20214;-84
2022/03/26 03:40:17;;;;;;;45.87;22.13;;;5.40;1.00;;;;;;5073202;28;20571;-84
2022/03/26 03:42:44;;;;;;;47.53;22.50;;;5.40;1.00;;;;;;5073715;28;20201;-84
2022/03/26 03:45:12;;;;;;;51.17;22.23;;;5.40;1.00;;;;;;5073354;28;20194;-83
2022/03/26 03:47:41;;;;;;;48.83;21.97;;;5.40;1.00;;;;;;5074043;28;20225;-83
2022/03/26 03:50:09;;;;;;;46.33;21.93;;;5.50;1.00;;;;;;5073441;28;20205;-84
2022/03/26 03:52:36;;;;;;;45.73;22.77;;;5.40;1.00;;;;;;5073850;28;20191;-83
2022/03/26 03:55:03;;;;;;;45.70;21.70;;;5.40;1.00;;;;;;5073127;28;20190;-83
2022/03/26 03:57:30;;;;;;;48.23;22.90;;;5.40;1.00;;;;;;5067021;28;20254;-83
2022/03/26 03:59:57;;;;;;;49.07;22.10;;;5.30;1.00;;;;;;5054835;28;20265;-83
2022/03/26 04:02:24;;;;;;;50.60;22.97;;;5.30;1.00;;;;;;5072950;28;20243;-83
2022/03/26 04:04:53;;;;;;;50.87;22.87;;;5.30;1.00;;;;;;5073338;28;20536;-84
2022/03/26 04:07:20;;;;;;;47.97;22.23;;;5.30;1.00;;;;;;5072930;28;20554;-84
2022/03/26 04:09:47;;;;;;;45.53;22.30;;;5.30;1.00;;;;;;5072697;28;20222;-83
2022/03/26 04:12:14;;;;;;;50.40;23.50;;;5.30;1.00;;;;;;5072874;28;20249;-83
2022/03/26 04:14:43;;;;;;;50.00;23.13;;;5.20;1.00;;;;;;5073141;28;20719;-83
2022/03/26 04:17:12;;;;;;;45.70;21.90;;;5.20;1.00;;;;;;5072848;28;20672;-83
2022/03/26 04:19:39;;;;;;;47.67;22.80;;;5.20;1.00;;;;;;5073165;28;20271;-84
2022/03/26 04:22:08;;;;;;;46.30;22.73;;;5.20;1.00;;;;;;5072766;28;20193;-84
2022/03/26 04:24:36;;;;;;;48.40;24.00;;;5.30;1.00;;;;;;5073162;28;20191;-83
2022/03/26 04:27:04;;;;;;;45.43;23.93;;;5.20;17.70;;;;;;5072846;28;20392;-83
2022/03/26 04:29:32;;;;;;;47.37;24.27;;;5.30;26.00;;;;;;5072508;28;20201;-84
2022/03/26 04:31:59;;;;;;;57.43;25.33;;;5.30;30.00;;;;;;5083275;28;20652;-84
2022/03/26 04:34:26;;;;;;;53.97;25.77;;;5.30;86.60;;;;;;5072951;28;20201;-84
2022/03/26 04:36:53;;;;;;;52.57;24.40;;;5.40;99.90;;;;;;5072856;28;20608;-83
2022/03/26 04:39:21;;;;;;;50.70;25.10;;;5.40;99.90;;;;;;5072472;28;20215;-84
2022/03/26 04:41:49;;;;;;;49.67;22.77;;;5.40;99.90;;;;;;5072368;28;20221;-84
2022/03/26 04:44:16;;;;;;;49.13;23.00;;;5.40;99.90;;;;;;5072650;28;20188;-83
2022/03/26 04:46:43;;;;;;;44.37;22.20;;;5.50;99.90;;;;;;5072415;28;20344;-83
2022/03/26 04:49:10;;;;;;;46.00;22.87;;;5.50;99.90;;;;;;5073819;28;20223;-84
2022/03/26 04:51:37;;;;;;;47.67;23.40;;;5.50;99.90;;;;;;5072177;28;20660;-84
2022/03/26 04:54:04;;;;;;;42.93;21.97;;;5.50;99.90;;;;;;5076103;28;20257;-84
2022/03/26 04:56:33;;;;;;;45.73;21.67;;;5.50;99.90;;;;;;5076086;28;20229;-85
2022/03/26 04:59:00;;;;;;;43.90;22.37;;;5.50;99.90;;;;;;5073456;28;20195;-84
2022/03/26 05:01:36;;;;;;;50.37;23.33;;;5.60;99.90;;;;;;5076246;28;20961;-86
2022/03/26 05:04:04;;;;;;;44.17;22.10;;;5.60;99.90;;;;;;5072101;28;20182;-83
2022/03/26 05:06:31;;;;;;;46.70;21.60;;;5.60;99.90;;;;;;5073949;28;20191;-83
2022/03/26 05:08:58;;;;;;;49.67;23.13;;;5.70;99.90;;;;;;5075494;28;20738;-84
2022/03/26 05:11:25;;;;;;;47.30;22.67;;;5.70;99.90;;;;;;5073715;28;20195;-84
2022/03/26 05:13:53;;;;;;;41.97;22.67;;;5.70;99.90;;;;;;5073020;28;20653;-84
2022/03/26 05:16:20;;;;;;;45.07;21.80;;;5.80;99.90;;;;;;5073463;28;20631;-85
2022/03/26 05:18:47;;;;;;;44.27;22.30;;;5.80;99.90;;;;;;5072055;28;20200;-86
2022/03/26 05:21:14;;;;;;;49.73;23.40;;;5.80;99.90;;;;;;5074049;28;20224;-84
2022/03/26 05:23:41;;;;;;;70.70;29.13;;;5.80;99.90;;;;;;5076402;28;20598;-84
2022/03/26 05:26:15;;;;;;;86.03;32.10;;;5.90;99.90;;;;;;5075532;28;20196;-85
2022/03/26 05:28:42;;;;;;;58.77;27.60;;;6.00;99.90;;;;;;5076623;28;20188;-85
2022/03/26 05:31:10;;;;;;;65.60;27.37;;;6.00;99.90;;;;;;5080380;28;20217;-85
2022/03/26 05:33:37;;;;;;;55.77;26.87;;;6.10;99.90;;;;;;5076464;28;20224;-83
2022/03/26 05:36:05;;;;;;;74.93;31.57;;;6.10;99.90;;;;;;5077514;28;20279;-84
2022/03/26 05:38:32;;;;;;;194.53;63.00;;;6.30;99.90;;;;;;5074181;28;20283;-84
2022/03/26 05:40:59;;;;;;;125.87;45.07;;;6.50;1.00;;;;;;5076096;28;20216;-86
2022/03/26 05:43:28;;;;;;;46.57;23.33;;;7.10;99.90;;;;;;5079769;28;20292;-89
2022/03/26 05:45:55;;;;;;;36.57;19.17;;;8.00;1.00;;;;;;5081543;28;20177;-85
2022/03/26 05:48:24;;;;;;;49.67;23.70;;;9.00;1.00;;;;;;5075446;28;20250;-84
2022/03/26 05:50:51;;;;;;;52.30;24.47;;;10.00;99.90;;;;;;5074349;28;20253;-86
2022/03/26 05:53:18;;;;;;;58.77;25.73;;;10.90;1.00;;;;;;5076007;28;20288;-85
2022/03/26 05:55:45;;;;;;;74.10;29.57;;;11.60;99.90;;;;;;5081997;28;20235;-86
2022/03/26 05:58:12;;;;;;;64.03;28.70;;;12.20;10.20;;;;;;5078810;28;20193;-85
2022/03/26 06:00:39;;;;;;;54.50;25.93;;;12.90;1.00;;;;;;5078805;28;20623;-83
2022/03/26 06:03:09;;;;;;;63.10;28.13;;;13.50;1.00;;;;;;5077226;28;20196;-83
2022/03/26 06:05:38;;;;;;;42.47;21.60;;;14.10;99.90;;;;;;5076921;28;20659;-83
2022/03/26 06:08:09;;;;;;;38.70;21.60;;;14.80;99.90;;;;;;5077985;28;20194;-86
2022/03/26 06:10:36;;;;;;;42.58;21.58;;;15.30;99.90;;;;;;5078010;28;20230;-83
2022/03/26 06:13:03;;;;;;;33.95;20.10;;;15.90;99.90;;;;;;5079422;28;20206;-84
2022/03/26 06:15:37;;;;;;;48.40;26.65;;;16.30;8.90;;;;;;5080798;28;20251;-85
2022/03/26 06:18:15;;;;;;;38.80;23.90;;;16.90;1.00;;;;;;5079996;28;20226;-85
2022/03/26 06:20:49;;;;;;;46.08;25.55;;;17.40;1.00;;;;;;5081425;28;20236;-85
2022/03/26 06:23:16;;;;;;;32.85;19.98;;;17.80;1.00;;;;;;5080833;28;20185;-84
2022/03/26 06:25:47;;;;;;;29.20;19.38;;;18.20;1.00;;;;;;5087105;28;20200;-87
2022/03/26 06:28:19;;;;;;;27.08;18.08;;;18.60;1.00;;;;;;5077273;28;20181;-84
2022/03/26 06:30:46;;;;;;;32.78;22.02;;;19.00;1.00;;;;;;5080415;28;20192;-83
2022/03/26 06:33:15;;;;;;;30.48;20.75;;;19.60;1.00;;;;;;5077628;28;20199;-82
2022/03/26 06:35:43;;;;;;;29.98;20.58;;;19.90;1.00;;;;;;5075574;28;20223;-81
2022/03/26 06:38:10;;;;;;;37.58;25.10;;;20.00;1.00;;;;;;5075668;28;20197;-83
2022/03/26 06:40:47;;;;;;;31.88;21.42;;;20.10;1.00;;;;;;5078496;28;20418;-84
2022/03/26 06:43:14;;;;;;;27.88;21.42;;;20.20;1.00;;;;;;5079196;28;20180;-84
2022/03/26 06:45:43;;;;;;;27.38;19.52;;;20.40;1.00;;;;;;5076855;28;20192;-83
2022/03/26 06:48:16;;;;;;;26.92;17.25;;;20.60;1.00;;;;;;5077506;28;20203;-83
2022/03/26 06:50:45;;;;;;;25.33;17.17;;;20.80;1.00;;;;;;5075515;28;20192;-85
2022/03/26 06:53:12;;;;;;;26.38;18.33;;;20.60;1.00;;;;;;5078734;28;20196;-83
2022/03/26 06:55:46;;;;;;;26.38;18.13;;;19.90;1.00;;;;;;5076194;28;20245;-85
2022/03/26 06:58:13;;;;;;;30.63;18.25;;;19.00;1.00;;;;;;5073796;28;20184;-83
2022/03/26 07:00:40;;;;;;;26.45;16.38;;;18.70;1.00;;;;;;5077287;28;20212;-83
2022/03/26 07:03:08;;;;;;;25.00;16.15;;;19.10;1.00;;;;;;5078063;28;20197;-81
2022/03/26 07:05:35;;;;;;;22.77;15.57;;;19.70;1.00;;;;;;5074379;28;20203;-84
2022/03/26 07:08:10;;;;;;;24.52;16.80;;;19.80;1.00;;;;;;5074885;28;20192;-81
2022/03/26 07:10:37;;;;;;;26.50;16.50;;;19.30;1.00;;;;;;5075634;28;20631;-82
2022/03/26 07:13:04;;;;;;;27.70;16.05;;;18.70;1.00;;;;;;5075125;28;20648;-82
2022/03/26 07:15:31;;;;;;;22.63;15.50;;;18.40;1.00;;;;;;5074605;28;20652;-82
2022/03/26 07:17:59;;;;;;;26.05;15.57;;;18.40;1.00;;;;;;5074430;28;20188;-82
2022/03/26 07:20:26;;;;;;;30.58;18.00;;;18.40;1.00;;;;;;5064705;28;20224;-83
2022/03/26 07:22:58;;;;;;;23.38;16.25;;;18.00;1.00;;;;;;5071445;28;20196;-82
2022/03/26 07:25:26;;;;;;;35.20;16.75;;;17.50;1.00;;;;;;5068598;28;20193;-83
2022/03/26 07:27:54;;;;;;;27.48;17.98;;;17.00;1.00;;;;;;5072125;28;20192;-84
2022/03/26 07:30:36;;;;;;;27.88;15.82;;;16.60;1.00;;;;;;5075109;28;20226;-84
2022/03/26 07:33:17;;;;;;;24.63;16.65;;;16.10;1.00;;;;;;5075510;28;20183;-86
2022/03/26 07:35:49;;;;;;;29.93;17.17;;;15.60;1.00;;;;;;5071506;28;20232;-86
2022/03/26 07:38:16;;;;;;;36.07;18.30;;;15.10;1.00;;;;;;5066609;28;20201;-84
2022/03/26 07:40:45;;;;;;;25.10;16.27;;;14.70;1.00;;;;;;5072834;28;20560;-81
2022/03/26 07:43:22;;;;;;;29.23;17.97;;;14.40;1.00;;;;;;5074144;28;20189;-82
2022/03/26 07:45:49;;;;;;;28.10;17.40;;;14.10;1.00;;;;;;5071906;28;20622;-84
2022/03/26 07:48:16;;;;;;;33.83;20.97;;;13.80;1.00;;;;;;5074658;28;20211;-82
2022/03/26 07:50:43;;;;;;;40.40;22.47;;;13.50;1.00;;;;;;5073398;28;20206;-81
2022/03/26 07:53:12;;;;;;;38.93;19.77;;;13.20;1.00;;;;;;5073507;28;20535;-81
2022/03/26 07:55:39;;;;;;;43.67;21.43;;;13.00;1.00;;;;;;5073256;28;20195;-81
2022/03/26 07:58:08;;;;;;;35.37;19.50;;;12.80;1.00;;;;;;5072795;28;20201;-82
2022/03/26 08:00:38;;;;;;;40.57;20.60;;;12.70;1.00;;;;;;5073816;28;20252;-88
2022/03/26 08:03:05;;;;;;;36.93;21.00;;;12.70;1.00;;;;;;5068994;28;20196;-81
2022/03/26 08:05:32;;;;;;;43.57;25.00;;;12.70;1.00;;;;;;5070544;28;20201;-81
2022/03/26 08:07:59;;;;;;;39.13;22.30;;;12.60;1.00;;;;;;5070801;28;20594;-80
2022/03/26 08:10:27;;;;;;;52.60;27.00;;;12.60;1.00;;;;;;5071705;28;20236;-81
2022/03/26 08:12:57;;;;;;;47.83;25.97;;;12.60;1.90;;;;;;5073164;28;20194;-87
2022/03/26 08:15:31;;;;;;;42.00;22.87;;;12.50;10.60;;;;;;5071871;28;20197;-80
2022/03/26 08:18:02;;;;;;;35.07;18.93;;;12.40;43.70;;;;;;5063944;28;20620;-80
2022/03/26 08:20:29;;;;;;;47.30;26.20;;;12.30;63.70;;;;;;5071297;28;20200;-82
2022/03/26 08:23:07;;;;;;;39.37;19.87;;;12.20;77.90;;;;;;5052649;28;20213;-83
2022/03/26 08:28:19;;;;;;;31.93;20.03;;;12.10;99.90;;;;;;5070804;28;20329;-81
2022/03/26 08:30:47;;;;;;;34.40;19.27;;;12.10;99.90;;;;;;5067066;28;20222;-81
2022/03/26 08:33:15;;;;;;;30.70;19.90;;;12.10;99.90;;;;;;5067229;28;20185;-82
2022/03/26 08:35:42;;;;;;;34.47;19.87;;;12.10;99.90;;;;;;5072684;28;20193;-82
2022/03/26 08:38:10;;;;;;;39.43;23.27;;;12.30;99.90;;;;;;5065511;28;20646;-82
2022/03/26 08:40:47;;;;;;;51.50;26.10;;;12.40;99.90;;;;;;5066446;28;20610;-86
2022/03/26 08:43:14;;;;;;;38.37;21.97;;;12.40;99.90;;;;;;5063942;28;20243;-84
2022/03/26 08:45:42;;;;;;;36.33;22.50;;;12.40;99.90;;;;;;5059126;28;20201;-83
2022/03/26 08:48:11;;;;;;;33.93;19.73;;;12.40;99.90;;;;;;5073345;28;20272;-82
2022/03/26 08:50:38;;;;;;;32.60;20.47;;;12.50;99.90;;;;;;5071860;28;20539;-82
2022/03/26 08:53:05;;;;;;;36.63;21.23;;;12.40;99.90;;;;;;5071010;28;20657;-81
2022/03/26 08:55:32;;;;;;;32.80;20.83;;;12.30;99.90;;;;;;5071686;28;20206;-84
2022/03/26 08:58:00;;;;;;;36.20;21.73;;;12.30;99.90;;;;;;5072171;28;20203;-82
2022/03/26 09:00:28;;;;;;;35.37;19.63;;;12.30;99.90;;;;;;5071429;28;20225;-84
2022/03/26 09:02:55;;;;;;;36.80;20.60;;;12.30;99.90;;;;;;5071771;28;20201;-82
2022/03/26 09:05:27;;;;;;;34.83;18.37;;;12.30;99.90;;;;;;5072040;28;20595;-82
2022/03/26 09:07:54;;;;;;;33.33;19.70;;;12.20;99.90;;;;;;5071285;28;20189;-84
2022/03/26 09:10:22;;;;;;;33.63;19.03;;;12.30;99.90;;;;;;5061087;28;20580;-82
2022/03/26 09:12:49;;;;;;;35.17;19.93;;;12.30;99.90;;;;;;5069747;28;20201;-84
2022/03/26 09:15:17;;;;;;;32.77;18.23;;;12.40;99.90;;;;;;5074891;28;20213;-83
2022/03/26 09:17:44;;;;;;;29.30;18.77;;;12.40;99.90;;;;;;5071595;28;20249;-82
2022/03/26 09:20:12;;;;;;;28.40;18.50;;;12.40;99.90;;;;;;5070633;28;20654;-83
2022/03/26 09:22:40;;;;;;;35.00;20.33;;;12.40;99.90;;;;;;5072166;28;20221;-83
2022/03/26 09:25:08;;;;;;;31.20;17.83;;;12.50;99.90;;;;;;5072518;28;20202;-84
2022/03/26 09:27:35;;;;;;;30.37;18.67;;;12.60;99.90;;;;;;5073426;28;20194;-83
2022/03/26 09:30:02;;;;;;;29.83;17.20;;;12.60;99.90;;;;;;5074343;28;20229;-82
2022/03/26 09:32:29;;;;;;;29.73;18.73;;;12.60;99.90;;;;;;5075996;28;20205;-82
2022/03/26 09:34:56;;;;;;;32.03;19.70;;;12.70;99.90;;;;;;5079210;28;20201;-85
2022/03/26 09:37:24;;;;;;;30.40;18.67;;;12.70;99.90;;;;;;5072311;28;20663;-82
2022/03/26 09:39:54;;;;;;;29.30;15.47;;;12.80;99.90;;;;;;5067189;28;20195;-82
2022/03/26 09:42:23;;;;;;;29.03;16.70;;;12.80;99.90;;;;;;5068451;28;20234;-83
2022/03/26 09:44:51;;;;;;;28.03;16.40;;;12.70;99.90;;;;;;5066323;28;20274;-82
2022/03/26 09:47:19;;;;;;;29.73;17.67;;;12.60;99.90;;;;;;5059813;28;20196;-83
2022/03/26 09:49:46;;;;;;;28.27;17.67;;;12.50;99.90;;;;;;5056110;28;20199;-80
2022/03/26 09:52:14;;;;;;;28.83;18.13;;;12.40;99.90;;;;;;5070529;28;20194;-81
2022/03/26 09:54:42;;;;;;;26.43;16.53;;;12.30;99.90;;;;;;5078065;28;20539;-83
2022/03/26 09:57:10;;;;;;;26.73;16.90;;;12.10;99.90;;;;;;5078028;28;20189;-84
2022/03/26 09:59:38;;;;;;;26.67;16.60;;;12.00;99.90;;;;;;5074658;28;20194;-83
2022/03/26 10:02:05;;;;;;;26.67;16.57;;;12.00;99.90;;;;;;5058324;28;20220;-82
2022/03/26 10:04:38;;;;;;;27.23;16.00;;;12.00;99.90;;;;;;5056715;28;20193;-84
2022/03/26 10:07:10;;;;;;;25.50;16.20;;;11.90;99.90;;;;;;5076867;28;20256;-85
2022/03/26 10:09:55;;;;;;;31.27;16.87;;;11.90;99.90;;;;;;5080003;28;20236;-85
2022/03/26 10:12:28;;;;;;;27.17;15.47;;;11.80;99.90;;;;;;5077495;28;20232;-84
2022/03/26 10:14:58;;;;;;;32.13;18.13;;;11.80;99.90;;;;;;5072884;28;20275;-83
2022/03/26 10:17:26;;;;;;;29.43;16.70;;;11.70;99.90;;;;;;5076435;28;20220;-83
2022/03/26 10:19:55;;;;;;;34.07;20.53;;;11.70;99.90;;;;;;5066012;28;20272;-83
2022/03/26 10:22:31;;;;;;;24.70;15.67;;;11.70;99.90;;;;;;5054979;28;20216;-82
2022/03/26 10:25:00;;;;;;;26.13;14.87;;;11.70;99.90;;;;;;5055118;28;20192;-82
2022/03/26 10:27:32;;;;;;;23.67;14.23;;;11.60;99.90;;;;;;5054179;28;20193;-81
2022/03/26 10:30:00;;;;;;;30.93;17.70;;;11.60;99.90;;;;;;5071790;28;20192;-81
2022/03/26 10:32:41;;;;;;;36.10;18.90;;;11.50;99.90;;;;;;5075592;28;20196;-82
2022/03/26 10:35:18;;;;;;;29.80;17.10;;;11.50;99.90;;;;;;5077232;28;20180;-83
2022/03/26 10:37:48;;;;;;;27.63;15.00;;;11.40;99.90;;;;;;5077008;28;20230;-85
2022/03/26 10:40:20;;;;;;;40.87;22.63;;;11.40;99.90;;;;;;5073684;28;20747;-82
2022/03/26 10:43:02;;;;;;;32.23;17.83;;;11.40;99.90;;;;;;5073700;28;20239;-83
2022/03/26 10:45:32;;;;;;;22.90;14.60;;;11.30;99.90;;;;;;5058768;28;20192;-83
2022/03/26 10:48:02;;;;;;;23.60;14.47;;;11.30;99.90;;;;;;5056802;28;20679;-83
2022/03/26 10:50:34;;;;;;;27.67;16.70;;;11.40;99.90;;;;;;5058608;28;20208;-82
2022/03/26 10:53:15;;;;;;;22.13;13.37;;;11.30;99.90;;;;;;5074777;28;20187;-85
2022/03/26 10:55:43;;;;;;;24.93;13.67;;;11.20;1.00;;;;;;5076047;28;20180;-84
2022/03/26 10:58:12;;;;;;;22.40;12.47;;;11.20;99.90;;;;;;5078147;28;20287;-83
2022/03/26 11:00:43;;;;;;;24.37;12.83;;;11.20;1.00;;;;;;5079170;28;20198;-84
2022/03/26 11:03:10;;;;;;;20.60;12.57;;;11.20;1.00;;;;;;5077457;28;20645;-82
2022/03/26 11:05:39;;;;;;;21.33;13.87;;;11.30;1.00;;;;;;5082069;28;20309;-84
2022/03/26 11:08:10;;;;;;;22.47;13.37;;;11.20;1.00;;;;;;5078853;28;20188;-84
2022/03/26 11:10:37;;;;;;;19.57;12.20;;;11.20;1.00;;;;;;5075521;28;20685;-84
2022/03/26 11:13:05;;;;;;;20.90;12.83;;;11.20;1.00;;;;;;5071692;28;20257;-83
2022/03/26 11:15:47;;;;;;;21.83;12.80;;;11.20;1.00;;;;;;5064611;28;20202;-85
2022/03/26 11:18:48;;;;;;;20.20;12.73;;;11.20;1.00;;;;;;5061953;28;20200;-83
2022/03/26 11:21:48;;;;;;;25.33;13.73;;;11.20;1.00;;;;;;5054240;28;20207;-82
2022/03/26 11:24:53;;;;;;;20.57;12.50;;;11.20;1.00;;;;;;5054590;28;20208;-83
2022/03/26 11:27:36;;;;;;;23.70;13.63;;;11.20;1.00;;;;;;5054970;28;20203;-82
2022/03/26 11:30:16;;;;;;;22.47;14.33;;;11.10;1.00;;;;;;5054460;28;20711;-82
2022/03/26 11:32:49;;;;;;;19.43;12.33;;;11.10;1.00;;;;;;5055570;28;20637;-82
2022/03/26 11:35:17;;;;;;;18.60;12.30;;;11.00;1.00;;;;;;5073992;28;20269;-84
2022/03/26 11:37:52;;;;;;;20.83;12.97;;;11.00;1.00;;;;;;5071184;28;20640;-83
2022/03/26 11:40:44;;;;;;;21.87;13.57;;;11.00;1.00;;;;;;5064107;28;20268;-87
2022/03/26 11:43:12;;;;;;;21.80;12.83;;;11.00;1.00;;;;;;5051024;28;20215;-83
2022/03/26 11:51:25;;;;;;;20.93;12.93;;;10.90;1.00;;;;;;5054584;28;20186;-83
2022/03/26 11:53:59;;;;;;;21.23;12.90;;;10.80;1.00;;;;;;5058091;28;20206;-84
2022/03/26 11:56:31;;;;;;;24.77;14.27;;;10.80;1.00;;;;;;5059405;28;20709;-85
2022/03/26 11:59:09;;;;;;;36.40;18.47;;;10.80;1.00;;;;;;5058124;28;20655;-86
2022/03/26 12:01:38;;;;;;;22.57;14.00;;;10.80;1.00;;;;;;5061534;28;20223;-84
2022/03/26 12:04:22;;;;;;;25.27;14.47;;;10.80;1.00;;;;;;5066307;28;20545;-83
2022/03/26 12:06:51;;;;;;;22.60;13.50;;;10.80;1.00;;;;;;5073654;28;20192;-84
2022/03/26 12:09:36;;;;;;;20.00;12.50;;;10.70;1.00;;;;;;5078123;28;20732;-83
2022/03/26 12:12:17;;;;;;;23.40;13.40;;;10.70;1.00;;;;;;5078551;28;20208;-83
2022/03/26 12:15:33;;;;;;;22.20;13.20;;;10.70;1.00;;;;;;5080352;28;20612;-84
2022/03/26 12:18:11;;;;;;;27.30;14.33;;;10.70;1.00;;;;;;5032525;28;20231;-85
2022/03/26 12:20:42;;;;;;;22.73;13.73;;;10.70;1.00;;;;;;5064032;28;20193;-84
2022/03/26 12:23:12;;;;;;;23.20;14.13;;;10.60;1.00;;;;;;5054210;28;20200;-85
2022/03/26 12:28:37;;;;;;;21.87;13.97;;;10.60;1.00;;;;;;5053033;28;20201;-84
2022/03/26 12:31:06;;;;;;;23.57;14.53;;;10.60;1.00;;;;;;5056355;28;20277;-85
2022/03/26 12:33:40;;;;;;;23.37;13.53;;;10.70;1.00;;;;;;5057457;28;20190;-83
2022/03/26 12:36:10;;;;;;;17.80;11.80;;;10.70;1.00;;;;;;5077116;28;20547;-84
2022/03/26 12:38:37;;;;;;;24.07;13.90;;;10.70;1.00;;;;;;5074068;28;20195;-83
2022/03/26 12:41:06;;;;;;;23.90;13.33;;;10.70;1.00;;;;;;5079220;28;20193;-84
2022/03/26 12:43:35;;;;;;;18.97;11.57;;;10.70;1.00;;;;;;5077620;28;20223;-86
2022/03/26 12:46:07;;;;;;;19.17;11.83;;;10.70;1.00;;;;;;5074239;28;20202;-82
2022/03/26 12:48:34;;;;;;;18.37;11.63;;;10.70;1.00;;;;;;5073167;28;20271;-85
2022/03/26 12:51:06;;;;;;;23.13;13.07;;;10.70;1.00;;;;;;5077525;28;20196;-87
2022/03/26 12:53:44;;;;;;;20.03;11.77;;;10.70;1.00;;;;;;5074024;28;20248;-85
2022/03/26 12:56:20;;;;;;;21.10;11.90;;;10.80;1.00;;;;;;5075605;28;20187;-84
2022/03/26 12:59:00;;;;;;;18.27;11.50;;;10.90;1.00;;;;;;5081844;28;20188;-83